ADDS METAR Data INFO
IDs: Format: Raw Decoded Include TAF

Data at: 0203 UTC 26 Apr 2017

METAR for:KAUS (Austin/Bergstrom Int, TX, US)
Text:KAUS 260153Z 15014G22KT 10SM SCT022 SCT200 26/22 A2949 RMK AO2 SLP979 T02560217
Temperature: 25.6°C ( 78°F)
Dewpoint: 21.7°C ( 71°F) [RH = 79%]
Pressure (altimeter):29.49 inches Hg ( 998.7 mb) [Sea level pressure: 997.9 mb]
Winds:from the SSE (150 degrees) at 16 MPH (14 knots; 7.2 m/s) gusting to 25 MPH (22 knots; 11.3 m/s)
Visibility:10 or more sm (16+ km)
Ceiling:at least 12,000 feet AGL
Clouds: scattered clouds at 2200 feet AGL, scattered clouds at 20000 feet AGL


Page loaded:  02:03 UTC  |   07:03 PM Pacific  |   08:03 PM Mountain  |   09:03 PM Central  |   10:03 PM Eastern

 

ADVISORIES

FORECASTS

FORECASTS

OBSERVATIONS

USER TOOLS

ABOUT US